sensor_id;sensor_type;location;lat;lon;timestamp;pressure;altitude;pressure_sealevel;temperature;humidity
72395;BME280;60384;48.152;11.614;2023-05-02T00:01:42;95729.91;;;10.75;64.92
72395;BME280;60384;48.152;11.614;2023-05-02T00:04:44;95736.03;;;10.76;65.01
72395;BME280;60384;48.152;11.614;2023-05-02T00:07:46;95727.53;;;10.74;65.23
72395;BME280;60384;48.152;11.614;2023-05-02T00:10:49;95719.84;;;10.72;64.67
72395;BME280;60384;48.152;11.614;2023-05-02T00:13:51;95726.28;;;10.71;65.14
72395;BME280;60384;48.152;11.614;2023-05-02T00:16:52;95721.28;;;10.70;65.45
72395;BME280;60384;48.152;11.614;2023-05-02T00:19:54;95722.38;;;10.69;65.53
72395;BME280;60384;48.152;11.614;2023-05-02T00:22:55;95718.13;;;10.68;65.38
72395;BME280;60384;48.152;11.614;2023-05-02T00:25:58;95721.28;;;10.70;65.06
72395;BME280;60384;48.152;11.614;2023-05-02T00:29:00;95718.44;;;10.66;65.05
72395;BME280;60384;48.152;11.614;2023-05-02T00:32:02;95720.31;;;10.66;65.65
72395;BME280;60384;48.152;11.614;2023-05-02T00:35:04;95717.19;;;10.64;65.23
72395;BME280;60384;48.152;11.614;2023-05-02T00:38:05;95724.72;;;10.62;65.23
72395;BME280;60384;48.152;11.614;2023-05-02T00:41:09;95720.81;;;10.59;65.73
72395;BME280;60384;48.152;11.614;2023-05-02T00:44:11;95714.69;;;10.59;65.29
72395;BME280;60384;48.152;11.614;2023-05-02T00:47:13;95709.16;;;10.55;65.11
72395;BME280;60384;48.152;11.614;2023-05-02T00:50:15;95711.38;;;10.53;65.15
72395;BME280;60384;48.152;11.614;2023-05-02T00:53:18;95710.91;;;10.51;65.10
72395;BME280;60384;48.152;11.614;2023-05-02T00:56:21;95717.34;;;10.50;65.22
72395;BME280;60384;48.152;11.614;2023-05-02T00:59:22;95714.19;;;10.48;64.99
72395;BME280;60384;48.152;11.614;2023-05-02T01:02:35;95711.06;;;10.46;64.79
72395;BME280;60384;48.152;11.614;2023-05-02T01:05:40;95713.09;;;10.41;65.77
72395;BME280;60384;48.152;11.614;2023-05-02T01:08:46;95720.63;;;10.39;65.92
72395;BME280;60384;48.152;11.614;2023-05-02T01:11:55;95720.47;;;10.35;65.88
72395;BME280;60384;48.152;11.614;2023-05-02T01:14:58;95727.22;;;10.32;65.02
72395;BME280;60384;48.152;11.614;2023-05-02T01:18:03;95721.41;;;10.30;65.41
72395;BME280;60384;48.152;11.614;2023-05-02T01:21:06;95719.06;;;10.29;66.16
72395;BME280;60384;48.152;11.614;2023-05-02T01:24:09;95722.03;;;10.27;65.77
72395;BME280;60384;48.152;11.614;2023-05-02T01:27:17;95725.78;;;10.26;65.21
72395;BME280;60384;48.152;11.614;2023-05-02T01:30:25;95726.13;;;10.25;65.81
72395;BME280;60384;48.152;11.614;2023-05-02T01:33:28;95723.91;;;10.27;65.82
72395;BME280;60384;48.152;11.614;2023-05-02T01:36:31;95731.13;;;10.26;65.35
72395;BME280;60384;48.152;11.614;2023-05-02T01:39:34;95735.69;;;10.26;65.37
72395;BME280;60384;48.152;11.614;2023-05-02T01:42:37;95723.47;;;10.25;65.50
72395;BME280;60384;48.152;11.614;2023-05-02T01:45:41;95727.22;;;10.24;65.23
72395;BME280;60384;48.152;11.614;2023-05-02T01:48:44;95735.53;;;10.22;65.84
72395;BME280;60384;48.152;11.614;2023-05-02T01:51:47;95726.75;;;10.22;65.46
72395;BME280;60384;48.152;11.614;2023-05-02T01:54:50;95725.16;;;10.21;65.86
72395;BME280;60384;48.152;11.614;2023-05-02T01:57:53;95737.25;;;10.18;65.80
72395;BME280;60384;48.152;11.614;2023-05-02T02:00:57;95730.94;;;10.14;65.94
72395;BME280;60384;48.152;11.614;2023-05-02T02:04:00;95741.94;;;10.13;66.10
72395;BME280;60384;48.152;11.614;2023-05-02T02:07:05;95749.94;;;10.13;65.98
72395;BME280;60384;48.152;11.614;2023-05-02T02:10:07;95744.59;;;10.13;66.02
72395;BME280;60384;48.152;11.614;2023-05-02T02:13:12;95749.16;;;10.12;66.13
72395;BME280;60384;48.152;11.614;2023-05-02T02:16:17;95746.00;;;10.10;65.42
72395;BME280;60384;48.152;11.614;2023-05-02T02:19:19;95755.09;;;10.09;66.11
72395;BME280;60384;48.152;11.614;2023-05-02T02:22:21;95758.56;;;10.10;66.23
72395;BME280;60384;48.152;11.614;2023-05-02T02:25:26;95759.03;;;10.12;66.00
72395;BME280;60384;48.152;11.614;2023-05-02T02:28:27;95761.72;;;10.12;65.45
72395;BME280;60384;48.152;11.614;2023-05-02T02:31:31;95762.81;;;10.11;66.40
72395;BME280;60384;48.152;11.614;2023-05-02T02:34:32;95757.75;;;10.09;66.31
72395;BME280;60384;48.152;11.614;2023-05-02T02:37:36;95759.03;;;10.12;65.67
72395;BME280;60384;48.152;11.614;2023-05-02T02:40:40;95762.16;;;10.14;65.52
72395;BME280;60384;48.152;11.614;2023-05-02T02:43:47;95765.97;;;10.13;65.54
72395;BME280;60384;48.152;11.614;2023-05-02T02:46:57;95762.81;;;10.11;66.05
72395;BME280;60384;48.152;11.614;2023-05-02T02:50:07;95764.97;;;10.09;66.02
72395;BME280;60384;48.152;11.614;2023-05-02T02:53:12;95767.19;;;10.07;65.92
72395;BME280;60384;48.152;11.614;2023-05-02T02:56:19;95776.00;;;10.07;65.90
72395;BME280;60384;48.152;11.614;2023-05-02T02:59:22;95772.53;;;10.07;66.22
72395;BME280;60384;48.152;11.614;2023-05-02T03:02:30;95770.97;;;10.06;66.21
72395;BME280;60384;48.152;11.614;2023-05-02T03:05:32;95772.84;;;10.05;65.42
72395;BME280;60384;48.152;11.614;2023-05-02T03:08:38;95776.28;;;10.06;65.52
72395;BME280;60384;48.152;11.614;2023-05-02T03:11:42;95781.63;;;10.06;66.21
72395;BME280;60384;48.152;11.614;2023-05-02T03:14:45;95776.28;;;10.06;66.02
72395;BME280;60384;48.152;11.614;2023-05-02T03:17:48;95794.19;;;10.05;65.71
72395;BME280;60384;48.152;11.614;2023-05-02T03:20:50;95791.03;;;10.03;66.47
72395;BME280;60384;48.152;11.614;2023-05-02T03:23:52;95784.44;;;10.01;66.36
72395;BME280;60384;48.152;11.614;2023-05-02T03:26:54;95789.78;;;10.01;66.12
72395;BME280;60384;48.152;11.614;2023-05-02T03:29:59;95785.84;;;9.98;66.17
72395;BME280;60384;48.152;11.614;2023-05-02T03:33:04;95794.16;;;9.97;66.31
72395;BME280;60384;48.152;11.614;2023-05-02T03:36:09;95792.59;;;9.95;66.49
72395;BME280;60384;48.152;11.614;2023-05-02T03:39:12;95789.44;;;9.93;66.24
72395;BME280;60384;48.152;11.614;2023-05-02T03:42:14;95787.56;;;9.94;66.27
72395;BME280;60384;48.152;11.614;2023-05-02T03:45:16;95789.75;;;9.92;66.42
72395;BME280;60384;48.152;11.614;2023-05-02T03:48:20;95789.28;;;9.90;65.79
72395;BME280;60384;48.152;11.614;2023-05-02T03:51:22;95794.13;;;9.88;66.59
72395;BME280;60384;48.152;11.614;2023-05-02T03:54:30;95808.56;;;9.87;66.47
72395;BME280;60384;48.152;11.614;2023-05-02T03:57:33;95806.81;;;9.82;66.85
72395;BME280;60384;48.152;11.614;2023-05-02T04:00:35;95806.31;;;9.80;66.41
72395;BME280;60384;48.152;11.614;2023-05-02T04:03:41;95812.78;;;9.79;66.37
72395;BME280;60384;48.152;11.614;2023-05-02T04:06:45;95813.88;;;9.78;65.92
72395;BME280;60384;48.152;11.614;2023-05-02T04:09:46;95823.75;;;9.78;66.35
72395;BME280;60384;48.152;11.614;2023-05-02T04:12:49;95825.63;;;9.77;65.91
72395;BME280;60384;48.152;11.614;2023-05-02T04:15:52;95823.75;;;9.78;66.23
72395;BME280;60384;48.152;11.614;2023-05-02T04:18:57;95823.75;;;9.78;66.13
72395;BME280;60384;48.152;11.614;2023-05-02T04:22:00;95826.41;;;9.78;66.34
72395;BME280;60384;48.152;11.614;2023-05-02T04:25:04;95832.53;;;9.78;65.98
72395;BME280;60384;48.152;11.614;2023-05-02T04:28:07;95838.34;;;9.80;66.39
72395;BME280;60384;48.152;11.614;2023-05-02T04:31:10;95838.53;;;9.84;66.56
72395;BME280;60384;48.152;11.614;2023-05-02T04:34:13;95839.31;;;9.84;66.35
72395;BME280;60384;48.152;11.614;2023-05-02T04:37:18;95845.63;;;9.88;65.72
72395;BME280;60384;48.152;11.614;2023-05-02T04:40:20;95847.66;;;9.91;66.23
72395;BME280;60384;48.152;11.614;2023-05-02T04:43:27;95851.91;;;9.92;66.59
72395;BME280;60384;48.152;11.614;2023-05-02T04:46:33;95849.41;;;9.96;66.45
72395;BME280;60384;48.152;11.614;2023-05-02T04:49:36;95855.72;;;10.00;66.46
72395;BME280;60384;48.152;11.614;2023-05-02T04:52:38;95864.22;;;10.02;66.38
72395;BME280;60384;48.152;11.614;2023-05-02T04:55:39;95867.34;;;10.04;66.49
72395;BME280;60384;48.152;11.614;2023-05-02T04:58:42;95876.28;;;10.08;66.19
72395;BME280;60384;48.152;11.614;2023-05-02T05:01:45;95876.47;;;10.12;66.01
72395;BME280;60384;48.152;11.614;2023-05-02T05:04:48;95875.84;;;10.15;65.98
72395;BME280;60384;48.152;11.614;2023-05-02T05:07:52;95884.94;;;10.14;65.96
72395;BME280;60384;48.152;11.614;2023-05-02T05:10:56;95884.66;;;10.15;65.77
72395;BME280;60384;48.152;11.614;2023-05-02T05:13:58;95888.63;;;10.18;66.14
72395;BME280;60384;48.152;11.614;2023-05-02T05:17:02;95890.38;;;10.22;65.70
72395;BME280;60384;48.152;11.614;2023-05-02T05:20:06;95888.66;;;10.26;66.12
72395;BME280;60384;48.152;11.614;2023-05-02T05:23:10;95896.84;;;10.30;65.90
72395;BME280;60384;48.152;11.614;2023-05-02T05:26:12;95900.47;;;10.34;65.71
72395;BME280;60384;48.152;11.614;2023-05-02T05:29:16;95899.38;;;10.35;66.37
72395;BME280;60384;48.152;11.614;2023-05-02T05:32:18;95903.63;;;10.36;65.89
72395;BME280;60384;48.152;11.614;2023-05-02T05:35:22;95907.53;;;10.39;66.46
72395;BME280;60384;48.152;11.614;2023-05-02T05:38:24;95909.13;;;10.40;66.16
72395;BME280;60384;48.152;11.614;2023-05-02T05:41:26;95909.91;;;10.40;66.31
72395;BME280;60384;48.152;11.614;2023-05-02T05:44:34;95925.31;;;10.43;66.12
72395;BME280;60384;48.152;11.614;2023-05-02T05:47:36;95926.88;;;10.44;66.33
72395;BME280;60384;48.152;11.614;2023-05-02T05:50:40;95928.63;;;10.49;66.23
72395;BME280;60384;48.152;11.614;2023-05-02T05:53:42;95930.06;;;10.55;66.77
72395;BME280;60384;48.152;11.614;2023-05-02T05:56:46;95936.84;;;10.61;65.60
72395;BME280;60384;48.152;11.614;2023-05-02T05:59:51;95945.03;;;10.64;65.86
72395;BME280;60384;48.152;11.614;2023-05-02T06:02:53;95937.97;;;10.68;66.08
72395;BME280;60384;48.152;11.614;2023-05-02T06:06:02;95941.28;;;10.74;66.11
72395;BME280;60384;48.152;11.614;2023-05-02T06:09:03;95942.09;;;10.74;65.71
72395;BME280;60384;48.152;11.614;2023-05-02T06:12:06;95944.59;;;10.80;65.93
72395;BME280;60384;48.152;11.614;2023-05-02T06:15:11;95951.09;;;10.87;65.55
72395;BME280;60384;48.152;11.614;2023-05-02T06:18:14;95950.31;;;10.95;66.01
72395;BME280;60384;48.152;11.614;2023-05-02T06:21:18;95962.59;;;11.05;66.06
72395;BME280;60384;48.152;11.614;2023-05-02T06:24:19;95959.94;;;11.13;65.82
72395;BME280;60384;48.152;11.614;2023-05-02T06:27:21;95959.94;;;11.13;65.52
72395;BME280;60384;48.152;11.614;2023-05-02T06:30:23;95968.91;;;11.17;66.21
72395;BME280;60384;48.152;11.614;2023-05-02T06:33:24;95966.06;;;11.23;65.71
72395;BME280;60384;48.152;11.614;2023-05-02T06:36:27;95968.78;;;11.31;65.77
72395;BME280;60384;48.152;11.614;2023-05-02T06:39:29;95974.91;;;11.40;66.24
72395;BME280;60384;48.152;11.614;2023-05-02T06:42:31;95979.63;;;11.43;65.51
72395;BME280;60384;48.152;11.614;2023-05-02T06:45:32;95974.91;;;11.49;65.63
72395;BME280;60384;48.152;11.614;2023-05-02T06:48:34;95982.00;;;11.53;65.25
72395;BME280;60384;48.152;11.614;2023-05-02T06:51:37;95980.25;;;11.57;65.72
72395;BME280;60384;48.152;11.614;2023-05-02T06:54:40;95988.63;;;11.65;65.38
72395;BME280;60384;48.152;11.614;2023-05-02T06:57:41;95992.09;;;11.74;65.35
72395;BME280;60384;48.152;11.614;2023-05-02T07:00:43;96001.22;;;11.81;65.95
72395;BME280;60384;48.152;11.614;2023-05-02T07:03:45;95999.66;;;11.89;65.98
72395;BME280;60384;48.152;11.614;2023-05-02T07:06:48;95997.31;;;11.96;65.60
72395;BME280;60384;48.152;11.614;2023-05-02T07:09:50;95996.50;;;12.04;64.89
72395;BME280;60384;48.152;11.614;2023-05-02T07:12:52;95995.22;;;12.10;65.70
72395;BME280;60384;48.152;11.614;2023-05-02T07:15:53;95991.28;;;12.16;64.96
72395;BME280;60384;48.152;11.614;2023-05-02T07:18:55;95987.00;;;12.24;64.64
72395;BME280;60384;48.152;11.614;2023-05-02T07:21:58;95993.44;;;12.31;65.36
72395;BME280;60384;48.152;11.614;2023-05-02T07:25:00;95988.09;;;12.31;64.99
72395;BME280;60384;48.152;11.614;2023-05-02T07:28:02;95995.31;;;12.31;65.52
72395;BME280;60384;48.152;11.614;2023-05-02T07:31:04;95993.91;;;12.33;65.53
72395;BME280;60384;48.152;11.614;2023-05-02T07:34:06;95997.53;;;12.37;65.45
72395;BME280;60384;48.152;11.614;2023-05-02T07:37:09;96007.78;;;12.35;65.30
72395;BME280;60384;48.152;11.614;2023-05-02T07:40:11;96003.97;;;12.36;65.79
72395;BME280;60384;48.152;11.614;2023-05-02T07:43:12;96004.16;;;12.40;65.85
72395;BME280;60384;48.152;11.614;2023-05-02T07:46:15;96002.53;;;12.48;65.48
72395;BME280;60384;48.152;11.614;2023-05-02T07:49:17;96000.47;;;12.53;65.75
72395;BME280;60384;48.152;11.614;2023-05-02T07:52:21;96007.41;;;12.54;65.55
72395;BME280;60384;48.152;11.614;2023-05-02T07:55:22;96008.34;;;12.58;65.54
72395;BME280;60384;48.152;11.614;2023-05-02T07:58:26;96008.19;;;12.63;65.84
72395;BME280;60384;48.152;11.614;2023-05-02T08:01:27;96017.16;;;12.67;65.54
72395;BME280;60384;48.152;11.614;2023-05-02T08:04:29;96010.78;;;12.80;65.33
72395;BME280;60384;48.152;11.614;2023-05-02T08:07:32;96008.53;;;12.91;64.94
72395;BME280;60384;48.152;11.614;2023-05-02T08:10:34;96020.78;;;13.01;64.84
72395;BME280;60384;48.152;11.614;2023-05-02T08:13:36;96014.25;;;13.10;64.95
72395;BME280;60384;48.152;11.614;2023-05-02T08:16:37;96022.31;;;13.19;64.81
72395;BME280;60384;48.152;11.614;2023-05-02T08:19:39;96019.56;;;13.28;64.65
72395;BME280;60384;48.152;11.614;2023-05-02T08:22:42;96012.91;;;13.34;64.71
72395;BME280;60384;48.152;11.614;2023-05-02T08:25:43;96019.03;;;13.43;64.66
72395;BME280;60384;48.152;11.614;2023-05-02T08:28:45;96023.69;;;13.54;64.40
72395;BME280;60384;48.152;11.614;2023-05-02T08:31:47;96021.41;;;13.65;64.45
72395;BME280;60384;48.152;11.614;2023-05-02T08:34:49;96026.84;;;13.77;64.39
72395;BME280;60384;48.152;11.614;2023-05-02T08:37:52;96023.03;;;13.78;64.26
72395;BME280;60384;48.152;11.614;2023-05-02T08:40:53;96027.88;;;13.85;64.20
72395;BME280;60384;48.152;11.614;2023-05-02T08:43:55;96026.56;;;13.91;64.74
72395;BME280;60384;48.152;11.614;2023-05-02T08:46:57;96031.41;;;13.97;64.72
72395;BME280;60384;48.152;11.614;2023-05-02T08:50:00;96031.94;;;14.12;64.23
72395;BME280;60384;48.152;11.614;2023-05-02T08:53:03;96034.84;;;14.19;63.91
72395;BME280;60384;48.152;11.614;2023-05-02T08:56:06;96043.59;;;14.16;64.07
72395;BME280;60384;48.152;11.614;2023-05-02T08:59:08;96039.38;;;14.27;64.46
72395;BME280;60384;48.152;11.614;2023-05-02T09:02:11;96040.50;;;14.46;64.13
72395;BME280;60384;48.152;11.614;2023-05-02T09:05:17;96038.38;;;14.64;64.02
72395;BME280;60384;48.152;11.614;2023-05-02T09:08:24;96043.00;;;14.76;63.48
72395;BME280;60384;48.152;11.614;2023-05-02T09:11:25;96038.97;;;14.82;63.81
72395;BME280;60384;48.152;11.614;2023-05-02T09:14:27;96046.72;;;14.83;64.14
72395;BME280;60384;48.152;11.614;2023-05-02T09:17:37;96050.66;;;14.86;63.94
72395;BME280;60384;48.152;11.614;2023-05-02T09:20:39;96048.72;;;14.86;63.82
72395;BME280;60384;48.152;11.614;2023-05-02T09:23:42;96051.56;;;14.90;64.00
72395;BME280;60384;48.152;11.614;2023-05-02T09:26:55;96052.13;;;14.96;64.45
72395;BME280;60384;48.152;11.614;2023-05-02T09:33:13;96057.75;;;15.03;64.01
72395;BME280;60384;48.152;11.614;2023-05-02T09:36:26;96060.19;;;14.96;64.66
72395;BME280;60384;48.152;11.614;2023-05-02T09:39:40;96055.69;;;15.00;64.88
72395;BME280;60384;48.152;11.614;2023-05-02T09:42:43;96057.97;;;14.98;64.41
72395;BME280;60384;48.152;11.614;2023-05-02T09:45:54;96061.22;;;15.03;64.63
72395;BME280;60384;48.152;11.614;2023-05-02T09:48:56;96060.22;;;15.08;64.58
72395;BME280;60384;48.152;11.614;2023-05-02T09:52:08;96060.09;;;15.16;64.89
72395;BME280;60384;48.152;11.614;2023-05-02T09:55:20;96064.03;;;15.19;64.88
72395;BME280;60384;48.152;11.614;2023-05-02T09:58:22;96058.88;;;15.14;64.52
72395;BME280;60384;48.152;11.614;2023-05-02T10:01:24;96059.75;;;15.06;64.62
72395;BME280;60384;48.152;11.614;2023-05-02T10:04:27;96057.97;;;14.98;65.01
72395;BME280;60384;48.152;11.614;2023-05-02T10:07:28;96049.09;;;14.85;65.48
72395;BME280;60384;48.152;11.614;2023-05-02T10:10:32;96060.97;;;14.84;65.93
72395;BME280;60384;48.152;11.614;2023-05-02T10:13:36;96061.41;;;14.86;65.71
72395;BME280;60384;48.152;11.614;2023-05-02T10:16:40;96059.16;;;14.88;65.70
72395;BME280;60384;48.152;11.614;2023-05-02T10:19:44;96062.97;;;14.87;65.33
72395;BME280;60384;48.152;11.614;2023-05-02T10:22:51;96063.97;;;14.82;65.81
72395;BME280;60384;48.152;11.614;2023-05-02T10:25:56;96064.66;;;14.79;66.08
72395;BME280;60384;48.152;11.614;2023-05-02T10:28:58;96067.34;;;14.79;65.95
72395;BME280;60384;48.152;11.614;2023-05-02T10:32:00;96058.81;;;14.77;65.98
72395;BME280;60384;48.152;11.614;2023-05-02T10:35:04;96059.34;;;14.71;66.17
72395;BME280;60384;48.152;11.614;2023-05-02T10:38:06;96065.16;;;14.61;66.47
72395;BME280;60384;48.152;11.614;2023-05-02T10:41:11;96054.94;;;14.54;66.07
72395;BME280;60384;48.152;11.614;2023-05-02T10:44:13;96052.72;;;14.56;65.95
72395;BME280;60384;48.152;11.614;2023-05-02T10:47:18;96056.31;;;14.60;66.47
72395;BME280;60384;48.152;11.614;2023-05-02T10:50:20;96056.63;;;14.59;66.17
72395;BME280;60384;48.152;11.614;2023-05-02T10:53:22;96053.03;;;14.55;66.14
72395;BME280;60384;48.152;11.614;2023-05-02T10:56:25;96056.72;;;14.50;66.22
72395;BME280;60384;48.152;11.614;2023-05-02T10:59:27;96051.56;;;14.45;66.56
72395;BME280;60384;48.152;11.614;2023-05-02T11:02:48;96049.41;;;14.38;66.62
72395;BME280;60384;48.152;11.614;2023-05-02T11:06:03;96041.19;;;14.35;66.74
72395;BME280;60384;48.152;11.614;2023-05-02T11:12:45;96049.34;;;14.26;66.71
72395;BME280;60384;48.152;11.614;2023-05-02T11:15:54;96056.50;;;14.22;67.09
72395;BME280;60384;48.152;11.614;2023-05-02T11:18:57;96047.50;;;14.18;67.08
72395;BME280;60384;48.152;11.614;2023-05-02T11:25:29;96064.69;;;14.05;66.56
72395;BME280;60384;48.152;11.614;2023-05-02T11:28:39;96065.34;;;14.02;66.99
72395;BME280;60384;48.152;11.614;2023-05-02T11:35:01;96069.88;;;13.89;66.89
72395;BME280;60384;48.152;11.614;2023-05-02T11:38:04;96063.56;;;13.85;66.78
72395;BME280;60384;48.152;11.614;2023-05-02T11:41:05;96077.78;;;13.86;66.65
72395;BME280;60384;48.152;11.614;2023-05-02T11:44:09;96081.38;;;13.90;66.66
72395;BME280;60384;48.152;11.614;2023-05-02T11:47:12;96087.34;;;13.95;66.59
72395;BME280;60384;48.152;11.614;2023-05-02T11:50:14;96089.28;;;13.95;66.44
72395;BME280;60384;48.152;11.614;2023-05-02T11:53:16;96091.94;;;13.95;66.46
72395;BME280;60384;48.152;11.614;2023-05-02T11:56:21;96087.81;;;13.97;66.53
72395;BME280;60384;48.152;11.614;2023-05-02T11:59:25;96086.03;;;14.01;65.91
72395;BME280;60384;48.152;11.614;2023-05-02T12:02:36;96090.44;;;14.06;66.12
72395;BME280;60384;48.152;11.614;2023-05-02T12:05:37;96081.97;;;14.16;65.94
72395;BME280;60384;48.152;11.614;2023-05-02T12:08:39;96080.66;;;14.22;65.83
72395;BME280;60384;48.152;11.614;2023-05-02T12:11:41;96086.94;;;14.26;65.53
72395;BME280;60384;48.152;11.614;2023-05-02T12:14:45;96081.84;;;14.33;65.21
72395;BME280;60384;48.152;11.614;2023-05-02T12:17:46;96087.72;;;14.47;65.53
72395;BME280;60384;48.152;11.614;2023-05-02T12:20:51;96079.72;;;14.60;64.74
72395;BME280;60384;48.152;11.614;2023-05-02T12:23:53;96077.31;;;14.79;64.87
72395;BME280;60384;48.152;11.614;2023-05-02T12:30:25;96078.13;;;15.04;64.01
72395;BME280;60384;48.152;11.614;2023-05-02T12:33:26;96076.38;;;15.20;63.83
72395;BME280;60384;48.152;11.614;2023-05-02T12:36:28;96076.03;;;15.34;64.13
72395;BME280;60384;48.152;11.614;2023-05-02T12:39:33;96074.72;;;15.52;63.63
72395;BME280;60384;48.152;11.614;2023-05-02T12:42:35;96075.25;;;15.82;63.26
72395;BME280;60384;48.152;11.614;2023-05-02T12:45:38;96078.88;;;16.13;63.10
72395;BME280;60384;48.152;11.614;2023-05-02T12:48:39;96089.31;;;16.43;62.62
72395;BME280;60384;48.152;11.614;2023-05-02T12:51:51;96089.06;;;16.60;62.52
72395;BME280;60384;48.152;11.614;2023-05-02T12:54:53;96083.41;;;16.65;62.58
72395;BME280;60384;48.152;11.614;2023-05-02T12:58:15;96092.03;;;16.71;62.88
72395;BME280;60384;48.152;11.614;2023-05-02T13:01:18;96087.09;;;16.73;63.35
72395;BME280;60384;48.152;11.614;2023-05-02T13:04:20;96084.34;;;16.57;63.93
72395;BME280;60384;48.152;11.614;2023-05-02T13:07:22;96082.56;;;16.77;63.69
72395;BME280;60384;48.152;11.614;2023-05-02T13:10:23;96086.09;;;17.24;62.44
72395;BME280;60384;48.152;11.614;2023-05-02T13:13:25;96084.72;;;17.30;62.10
72395;BME280;60384;48.152;11.614;2023-05-02T13:16:28;96090.09;;;17.62;62.21
72395;BME280;60384;48.152;11.614;2023-05-02T13:19:30;96078.69;;;18.03;61.18
72395;BME280;60384;48.152;11.614;2023-05-02T13:22:32;96092.94;;;17.85;61.96
72395;BME280;60384;48.152;11.614;2023-05-02T13:25:34;96085.22;;;17.52;62.94
72395;BME280;60384;48.152;11.614;2023-05-02T13:28:35;96088.03;;;17.08;63.90
72395;BME280;60384;48.152;11.614;2023-05-02T13:31:38;96093.09;;;16.82;64.54
72395;BME280;60384;48.152;11.614;2023-05-02T13:34:40;96083.63;;;16.72;64.82
72395;BME280;60384;48.152;11.614;2023-05-02T13:37:42;96091.50;;;16.65;65.09
72395;BME280;60384;48.152;11.614;2023-05-02T13:40:44;96092.22;;;16.50;65.25
72395;BME280;60384;48.152;11.614;2023-05-02T13:43:45;96088.69;;;16.34;65.51
72395;BME280;60384;48.152;11.614;2023-05-02T13:46:48;96095.53;;;16.31;65.38
72395;BME280;60384;48.152;11.614;2023-05-02T13:49:50;96096.25;;;16.28;65.31
72395;BME280;60384;48.152;11.614;2023-05-02T13:52:52;96090.31;;;16.23;65.23
72395;BME280;60384;48.152;11.614;2023-05-02T13:55:54;96095.28;;;16.08;65.28
72395;BME280;60384;48.152;11.614;2023-05-02T13:58:55;96121.69;;;15.91;66.00
72395;BME280;60384;48.152;11.614;2023-05-02T14:01:59;96141.47;;;15.70;66.34
72395;BME280;60384;48.152;11.614;2023-05-02T14:05:00;96146.25;;;15.41;66.65
72395;BME280;60384;48.152;11.614;2023-05-02T14:08:02;96146.28;;;14.96;66.83
72395;BME280;60384;48.152;11.614;2023-05-02T14:11:04;96149.75;;;14.63;67.99
72395;BME280;60384;48.152;11.614;2023-05-02T14:14:05;96145.66;;;14.36;67.80
72395;BME280;60384;48.152;11.614;2023-05-02T14:17:09;96163.91;;;14.10;68.15
72395;BME280;60384;48.152;11.614;2023-05-02T14:20:11;96164.56;;;13.78;68.28
72395;BME280;60384;48.152;11.614;2023-05-02T14:23:13;96162.97;;;13.47;68.05
72395;BME280;60384;48.152;11.614;2023-05-02T14:26:14;96155.97;;;13.26;68.34
72395;BME280;60384;48.152;11.614;2023-05-02T14:29:16;96140.84;;;13.12;68.43
72395;BME280;60384;48.152;11.614;2023-05-02T14:32:19;96141.00;;;12.99;68.45
72395;BME280;60384;48.152;11.614;2023-05-02T14:35:20;96144.19;;;12.92;68.08
72395;BME280;60384;48.152;11.614;2023-05-02T14:38:22;96141.81;;;12.91;67.76
72395;BME280;60384;48.152;11.614;2023-05-02T14:41:24;96150.50;;;12.88;67.92
72395;BME280;60384;48.152;11.614;2023-05-02T14:44:26;96142.63;;;12.82;67.58
72395;BME280;60384;48.152;11.614;2023-05-02T14:47:29;96149.88;;;12.82;67.41
72395;BME280;60384;48.152;11.614;2023-05-02T14:50:31;96140.56;;;12.88;66.90
72395;BME280;60384;48.152;11.614;2023-05-02T14:53:32;96142.91;;;12.98;67.07
72395;BME280;60384;48.152;11.614;2023-05-02T14:56:34;96141.63;;;13.13;66.61
72395;BME280;60384;48.152;11.614;2023-05-02T14:59:35;96135.28;;;13.26;66.46
72395;BME280;60384;48.152;11.614;2023-05-02T15:02:39;96136.75;;;13.44;66.03
72395;BME280;60384;48.152;11.614;2023-05-02T15:05:41;96133.03;;;13.66;65.57
72395;BME280;60384;48.152;11.614;2023-05-02T15:08:42;96133.00;;;13.95;64.58
72395;BME280;60384;48.152;11.614;2023-05-02T15:11:44;96128.63;;;14.32;64.57
72395;BME280;60384;48.152;11.614;2023-05-02T15:14:45;96117.47;;;14.96;63.26
72395;BME280;60384;48.152;11.614;2023-05-02T15:17:48;96115.81;;;15.16;63.27
72395;BME280;60384;48.152;11.614;2023-05-02T15:20:50;96113.25;;;15.19;63.57
72395;BME280;60384;48.152;11.614;2023-05-02T15:23:52;96118.31;;;15.33;63.33
72395;BME280;60384;48.152;11.614;2023-05-02T15:26:53;96115.03;;;15.27;63.77
72395;BME280;60384;48.152;11.614;2023-05-02T15:29:55;96112.16;;;15.45;63.96
72395;BME280;60384;48.152;11.614;2023-05-02T15:32:58;96112.06;;;15.78;63.50
72395;BME280;60384;48.152;11.614;2023-05-02T15:36:00;96108.22;;;15.91;63.78
72395;BME280;60384;48.152;11.614;2023-05-02T15:39:02;96105.91;;;15.77;64.52
72395;BME280;60384;48.152;11.614;2023-05-02T15:42:04;96109.56;;;15.85;64.78
72395;BME280;60384;48.152;11.614;2023-05-02T15:45:06;96097.97;;;16.08;64.67
72395;BME280;60384;48.152;11.614;2023-05-02T15:48:09;96111.63;;;16.28;64.69
72395;BME280;60384;48.152;11.614;2023-05-02T15:51:10;96106.38;;;16.07;65.45
72395;BME280;60384;48.152;11.614;2023-05-02T15:54:13;96116.53;;;15.98;65.85
72395;BME280;60384;48.152;11.614;2023-05-02T15:57:14;96119.69;;;15.63;66.17
72395;BME280;60384;48.152;11.614;2023-05-02T16:00:16;96130.00;;;15.37;66.63
72395;BME280;60384;48.152;11.614;2023-05-02T16:03:19;96123.34;;;15.22;67.21
72395;BME280;60384;48.152;11.614;2023-05-02T16:06:21;96131.53;;;15.14;66.77
72395;BME280;60384;48.152;11.614;2023-05-02T16:09:22;96124.66;;;15.04;67.38
72395;BME280;60384;48.152;11.614;2023-05-02T16:12:24;96132.72;;;14.92;67.02
72395;BME280;60384;48.152;11.614;2023-05-02T16:15:26;96139.59;;;14.81;66.85